Time;durP1;ratioP1;P1;durP2;ratioP2;P2;SDS_P1;SDS_P2;PMS_P1;PMS_P2;Temp;Humidity;BMP_temperature;BMP_pressure;BME280_temperature;BME280_humidity;BME280_pressure;Samples;Min_cycle;Max_cycle;Signal;HPM_P1;HPM_P2
2024/04/10 00:01:49;;;;;;;60.67;49.10;;;18.50;98.80;;;;;;5488388;26;20342;-57
2024/04/10 00:04:17;;;;;;;66.93;50.03;;;18.50;98.90;;;;;;5455201;26;20337;-58
2024/04/10 00:06:44;;;;;;;58.53;48.83;;;18.50;98.90;;;;;;5489690;26;20617;-58
2024/04/10 00:09:12;;;;;;;63.07;50.20;;;18.40;98.80;;;;;;5489440;26;20291;-58
2024/04/10 00:11:42;;;;;;;54.20;48.17;;;18.40;98.90;;;;;;5454425;26;20296;-57
2024/04/10 00:14:10;;;;;;;60.47;48.40;;;18.40;99.00;;;;;;5455706;26;20288;-58
2024/04/10 00:16:37;;;;;;;58.67;48.87;;;18.40;99.00;;;;;;5489403;26;20350;-57
2024/04/10 00:19:06;;;;;;;58.73;49.40;;;18.40;99.00;;;;;;5489683;26;20241;-58
2024/04/10 00:21:35;;;;;;;56.57;48.37;;;18.30;99.00;;;;;;5489050;26;20313;-58
2024/04/10 00:24:03;;;;;;;55.90;47.03;;;18.30;99.10;;;;;;5488006;26;20748;-58
2024/04/10 00:26:31;;;;;;;54.40;46.90;;;18.30;99.20;;;;;;5489911;26;20822;-58
2024/04/10 00:29:00;;;;;;;56.70;44.53;;;18.30;99.20;;;;;;5484851;26;20249;-58
2024/04/10 00:31:29;;;;;;;59.87;45.37;;;18.30;99.20;;;;;;5488797;26;20248;-58
2024/04/10 00:33:59;;;;;;;55.27;46.17;;;18.30;99.20;;;;;;5480240;26;20245;-58
2024/04/10 00:36:28;;;;;;;58.57;47.57;;;18.30;99.20;;;;;;5485365;26;20244;-57
2024/04/10 00:38:55;;;;;;;51.93;45.00;;;18.30;99.20;;;;;;5458127;26;20317;-58
2024/04/10 00:41:23;;;;;;;53.47;47.57;;;18.30;99.20;;;;;;5480253;26;20245;-58
2024/04/10 00:43:50;;;;;;;59.90;46.53;;;18.30;99.20;;;;;;5481549;26;20236;-58
2024/04/10 00:46:24;;;;;;;56.50;46.47;;;18.30;99.20;;;;;;5488363;26;20709;-58
2024/04/10 00:48:53;;;;;;;53.83;46.47;;;18.30;99.10;;;;;;5489328;26;20236;-58
2024/04/10 00:51:25;;;;;;;56.33;47.33;;;18.30;99.20;;;;;;5488380;26;20237;-58
2024/04/10 00:53:54;;;;;;;59.60;45.47;;;18.20;99.20;;;;;;5489438;26;20233;-58
2024/04/10 00:56:22;;;;;;;52.07;45.00;;;18.20;99.10;;;;;;5481815;26;20305;-58
2024/04/10 00:58:57;;;;;;;59.80;46.10;;;18.20;99.20;;;;;;5483141;26;20252;-57
2024/04/10 01:01:26;;;;;;;50.33;44.60;;;18.20;99.20;;;;;;5427398;26;20291;-58
2024/04/10 01:03:56;;;;;;;53.50;45.27;;;18.10;99.20;;;;;;5425408;26;20245;-58
2024/04/10 01:06:29;;;;;;;50.60;44.43;;;18.10;99.20;;;;;;5487658;26;20361;-57
2024/04/10 01:08:58;;;;;;;52.63;46.13;;;18.10;99.20;;;;;;5457034;26;20241;-58
2024/04/10 01:11:26;;;;;;;51.93;45.40;;;18.10;99.20;;;;;;5475747;26;20305;-58
2024/04/10 01:13:55;;;;;;;53.13;45.97;;;18.10;99.30;;;;;;5473016;26;20258;-57
2024/04/10 01:16:25;;;;;;;55.90;45.93;;;18.10;99.30;;;;;;5457526;26;20298;-58
2024/04/10 01:18:54;;;;;;;55.17;44.87;;;18.10;99.30;;;;;;5491114;26;20309;-58
2024/04/10 01:21:23;;;;;;;51.93;44.93;;;18.10;99.30;;;;;;5440584;26;20796;-58
2024/04/10 01:23:50;;;;;;;51.67;44.27;;;18.10;99.30;;;;;;5489851;25;20645;-58
2024/04/10 01:26:18;;;;;;;51.07;44.30;;;18.10;99.30;;;;;;5486756;26;20763;-58
2024/04/10 01:28:47;;;;;;;57.17;45.03;;;18.10;99.30;;;;;;5486857;26;20329;-58
2024/04/10 01:31:15;;;;;;;53.07;44.63;;;18.10;99.30;;;;;;5453889;26;20280;-58
2024/04/10 01:33:43;;;;;;;51.27;43.77;;;18.10;99.30;;;;;;5479710;26;20299;-58
2024/04/10 01:36:12;;;;;;;55.50;44.40;;;18.10;99.30;;;;;;5455540;26;20700;-58
2024/04/10 01:38:40;;;;;;;52.53;45.03;;;18.00;99.20;;;;;;5491710;26;20243;-58
2024/04/10 01:41:08;;;;;;;52.70;44.07;;;18.00;99.20;;;;;;5491571;26;20291;-57
2024/04/10 01:43:39;;;;;;;52.07;43.77;;;18.00;99.20;;;;;;5483927;26;20245;-57
2024/04/10 01:46:11;;;;;;;50.37;43.23;;;18.00;99.20;;;;;;5496901;26;20240;-58
2024/04/10 01:48:40;;;;;;;49.03;43.40;;;18.00;99.20;;;;;;5457946;26;20244;-58
2024/04/10 01:51:08;;;;;;;49.83;43.63;;;18.00;99.10;;;;;;5490126;26;20334;-58
2024/04/10 01:53:36;;;;;;;48.43;42.83;;;18.00;99.10;;;;;;5485563;26;20701;-58
2024/04/10 01:56:04;;;;;;;50.67;42.60;;;18.00;99.20;;;;;;5482443;26;20329;-57
2024/04/10 01:58:33;;;;;;;50.80;42.53;;;17.90;99.10;;;;;;5487101;26;20249;-57
2024/04/10 02:01:01;;;;;;;52.90;42.47;;;17.90;99.10;;;;;;5487788;26;20330;-58
2024/04/10 02:03:29;;;;;;;48.30;40.77;;;17.90;99.10;;;;;;5489100;26;20305;-58
2024/04/10 02:05:56;;;;;;;48.70;42.07;;;17.90;99.00;;;;;;5488111;26;20245;-58
2024/04/10 02:08:25;;;;;;;48.67;42.27;;;17.90;99.10;;;;;;5489939;26;20256;-57
2024/04/10 02:10:59;;;;;;;52.70;43.80;;;17.90;99.00;;;;;;5454466;26;20253;-58
2024/04/10 02:13:27;;;;;;;49.77;41.70;;;17.90;99.00;;;;;;5488586;26;20260;-58
2024/04/10 02:15:56;;;;;;;51.87;41.60;;;17.80;98.80;;;;;;5487142;26;20706;-57
2024/04/10 02:18:24;;;;;;;48.93;42.80;;;17.80;98.80;;;;;;5458486;26;20340;-57
2024/04/10 02:20:59;;;;;;;57.93;44.17;;;17.80;98.80;;;;;;5487780;26;20240;-58
2024/04/10 02:23:31;;;;;;;49.67;43.57;;;17.80;98.70;;;;;;5491496;26;20706;-57
2024/04/10 02:26:13;;;;;;;53.47;44.20;;;17.70;98.70;;;;;;5459317;26;20243;-58
2024/04/10 02:28:41;;;;;;;54.73;43.77;;;17.60;98.70;;;;;;5485179;26;20240;-58
2024/04/10 02:31:10;;;;;;;56.67;44.13;;;17.60;98.70;;;;;;5466979;26;20683;-58
2024/04/10 02:33:39;;;;;;;48.70;42.97;;;17.60;98.80;;;;;;5477357;26;20244;-58
2024/04/10 02:36:08;;;;;;;48.67;43.37;;;17.50;98.80;;;;;;5488428;26;20299;-58
2024/04/10 02:38:36;;;;;;;51.90;42.60;;;17.60;98.90;;;;;;5482967;26;20951;-58
2024/04/10 02:41:04;;;;;;;52.87;42.83;;;17.50;98.90;;;;;;5487740;26;20267;-58
2024/04/10 02:43:33;;;;;;;53.50;42.63;;;17.50;99.00;;;;;;5485468;26;20551;-57
2024/04/10 02:46:05;;;;;;;52.50;42.80;;;17.50;99.00;;;;;;5481204;26;20560;-57
2024/04/10 02:48:33;;;;;;;50.40;42.77;;;17.50;99.00;;;;;;5489671;26;20256;-57
2024/04/10 02:51:00;;;;;;;50.07;42.73;;;17.50;99.00;;;;;;5489087;26;20311;-58
2024/04/10 02:53:28;;;;;;;50.20;42.17;;;17.50;98.90;;;;;;5486469;26;20260;-57
2024/04/10 02:55:55;;;;;;;52.57;42.87;;;17.40;98.90;;;;;;5490164;26;20313;-57
2024/04/10 02:58:23;;;;;;;56.97;42.67;;;17.40;99.00;;;;;;5490871;26;20248;-57
2024/04/10 03:00:53;;;;;;;52.17;42.30;;;17.40;99.10;;;;;;5487430;26;20320;-58
2024/04/10 03:03:22;;;;;;;53.67;43.70;;;17.40;99.20;;;;;;5490399;26;20713;-58
2024/04/10 03:06:07;;;;;;;51.67;41.73;;;17.40;99.20;;;;;;5484061;26;20542;-57
2024/04/10 03:08:36;;;;;;;52.20;41.87;;;17.30;99.50;;;;;;5455925;26;20299;-57
2024/04/10 03:11:05;;;;;;;51.63;42.47;;;17.30;99.10;;;;;;5488633;26;20697;-58
2024/04/10 03:13:33;;;;;;;51.53;42.07;;;17.30;99.10;;;;;;5486563;26;20241;-57
2024/04/10 03:16:01;;;;;;;54.40;41.17;;;17.20;99.10;;;;;;5488819;26;20282;-57
2024/04/10 03:18:29;;;;;;;54.87;41.83;;;17.30;99.10;;;;;;5488075;26;20338;-57
2024/04/10 03:20:57;;;;;;;51.47;42.37;;;17.20;99.30;;;;;;5516135;26;20252;-58
2024/04/10 03:23:26;;;;;;;54.90;42.47;;;17.10;99.00;;;;;;5497175;26;20290;-58
2024/04/10 03:26:08;;;;;;;53.40;40.63;;;17.10;99.00;;;;;;5457414;26;20348;-58
2024/04/10 03:28:36;;;;;;;52.53;42.33;;;16.90;99.10;;;;;;5487675;26;20241;-58
2024/04/10 03:31:06;;;;;;;53.47;40.13;;;16.90;99.30;;;;;;5454370;26;20582;-58
2024/04/10 03:33:35;;;;;;;46.20;36.77;;;16.80;99.50;;;;;;5488135;26;20251;-57
2024/04/10 03:36:06;;;;;;;43.73;36.23;;;16.70;99.50;;;;;;5458905;26;20389;-57
2024/04/10 03:38:35;;;;;;;49.57;37.03;;;16.60;99.50;;;;;;5427623;26;20598;-57
2024/04/10 03:41:03;;;;;;;45.87;36.93;;;16.50;99.50;;;;;;5487145;26;20302;-57
2024/04/10 03:43:32;;;;;;;44.17;36.37;;;16.50;99.60;;;;;;5485405;26;20274;-57
2024/04/10 03:46:04;;;;;;;49.00;36.43;;;16.40;99.60;;;;;;5455541;26;20607;-57
2024/04/10 03:48:32;;;;;;;46.13;37.83;;;16.40;99.70;;;;;;5472253;26;20246;-58
2024/04/10 03:51:00;;;;;;;47.63;35.93;;;16.40;99.80;;;;;;5476602;26;20326;-57
2024/04/10 03:53:28;;;;;;;44.77;34.97;;;16.30;99.90;;;;;;5487386;26;20299;-58
2024/04/10 03:55:57;;;;;;;45.47;36.03;;;16.30;99.90;;;;;;5452561;26;20290;-58
2024/04/10 03:58:25;;;;;;;41.97;35.23;;;16.30;99.90;;;;;;5485012;26;20280;-58
2024/04/10 04:00:53;;;;;;;42.80;35.73;;;16.30;99.90;;;;;;5487286;26;20844;-58
2024/04/10 04:03:25;;;;;;;43.33;36.10;;;16.20;99.90;;;;;;5487249;26;20759;-58
2024/04/10 04:05:54;;;;;;;42.80;34.00;;;16.20;99.90;;;;;;5454030;26;20295;-57
2024/04/10 04:08:21;;;;;;;48.57;36.63;;;16.20;99.90;;;;;;5487218;26;20648;-57
2024/04/10 04:10:49;;;;;;;43.73;34.50;;;16.20;99.90;;;;;;5484175;26;20289;-57
2024/04/10 04:13:17;;;;;;;41.10;34.63;;;16.30;99.90;;;;;;5488650;26;20702;-58
2024/04/10 04:15:46;;;;;;;38.33;34.13;;;16.30;99.90;;;;;;5481120;26;20331;-57
2024/04/10 04:18:13;;;;;;;45.93;35.50;;;16.30;99.90;;;;;;5486213;26;20613;-58
2024/04/10 04:20:42;;;;;;;45.20;33.03;;;16.40;99.90;;;;;;5456212;26;20738;-57
2024/04/10 04:23:12;;;;;;;40.13;31.93;;;16.40;99.90;;;;;;5480560;26;20547;-57
2024/04/10 04:25:40;;;;;;;40.13;34.47;;;16.40;99.90;;;;;;5476307;26;20297;-57
2024/04/10 04:28:07;;;;;;;45.27;32.47;;;16.40;99.90;;;;;;5487514;26;20239;-57
2024/04/10 04:30:35;;;;;;;41.57;32.27;;;16.40;99.90;;;;;;5487291;26;20307;-57
2024/04/10 04:33:04;;;;;;;40.23;31.60;;;16.40;99.90;;;;;;5488234;26;20341;-57
2024/04/10 04:35:32;;;;;;;39.77;32.53;;;16.40;99.90;;;;;;5487169;26;20257;-58
2024/04/10 04:38:01;;;;;;;38.30;30.93;;;16.40;99.90;;;;;;5456644;26;20245;-58
2024/04/10 04:40:30;;;;;;;37.93;29.73;;;16.30;99.90;;;;;;5447721;26;20287;-58
2024/04/10 04:43:02;;;;;;;38.30;30.50;;;16.30;99.90;;;;;;5457396;26;20255;-57
2024/04/10 04:45:30;;;;;;;34.53;28.73;;;16.30;99.90;;;;;;5448454;26;20246;-57
2024/04/10 04:47:59;;;;;;;38.80;30.33;;;16.30;99.90;;;;;;5482509;26;20244;-58
2024/04/10 04:50:29;;;;;;;34.93;28.80;;;16.20;99.90;;;;;;5486629;26;20339;-58
2024/04/10 04:52:56;;;;;;;37.00;27.73;;;16.20;99.90;;;;;;5486886;26;20708;-58
2024/04/10 04:55:24;;;;;;;34.03;28.33;;;16.20;99.90;;;;;;5485502;26;20700;-58
2024/04/10 04:57:52;;;;;;;32.57;27.80;;;16.20;99.90;;;;;;5487086;26;20285;-58
2024/04/10 05:00:20;;;;;;;32.30;27.23;;;16.20;99.90;;;;;;5486937;26;20269;-57
2024/04/10 05:02:47;;;;;;;31.00;26.77;;;16.20;99.90;;;;;;5487060;26;20243;-57
2024/04/10 05:05:18;;;;;;;32.00;26.33;;;16.30;99.90;;;;;;5487310;26;20261;-57
2024/04/10 05:07:47;;;;;;;31.47;26.43;;;16.20;99.90;;;;;;5487078;26;20237;-58
2024/04/10 05:10:17;;;;;;;31.63;27.30;;;16.30;99.90;;;;;;5480689;26;20254;-58
2024/04/10 05:12:45;;;;;;;32.43;25.87;;;16.30;99.90;;;;;;5492253;26;20234;-58
2024/04/10 05:15:15;;;;;;;32.67;26.10;;;16.30;99.90;;;;;;5486733;26;20297;-58
2024/04/10 05:17:45;;;;;;;31.40;25.70;;;16.30;99.90;;;;;;5492185;26;20235;-58
2024/04/10 05:20:14;;;;;;;30.83;27.47;;;16.30;99.90;;;;;;5489399;26;20238;-57
2024/04/10 05:22:45;;;;;;;28.27;24.97;;;16.30;99.90;;;;;;5491695;26;20287;-58
2024/04/10 05:25:13;;;;;;;28.10;24.17;;;16.40;99.90;;;;;;5484455;26;20576;-57
2024/04/10 05:27:43;;;;;;;29.27;24.20;;;16.40;99.90;;;;;;5488367;26;20263;-58
2024/04/10 05:30:12;;;;;;;23.80;21.23;;;16.40;99.90;;;;;;5490781;26;20247;-58
2024/04/10 05:32:41;;;;;;;25.47;22.07;;;16.30;99.90;;;;;;5460356;26;20280;-57
2024/04/10 05:35:11;;;;;;;28.97;22.17;;;16.30;99.90;;;;;;5486297;26;20895;-58
2024/04/10 05:37:39;;;;;;;23.13;20.83;;;16.30;99.90;;;;;;5471485;26;20250;-57
2024/04/10 05:40:16;;;;;;;21.73;19.33;;;16.30;99.90;;;;;;5489538;26;20246;-58
2024/04/10 05:42:45;;;;;;;21.80;17.97;;;16.30;99.90;;;;;;5486882;26;20592;-58
2024/04/10 05:45:14;;;;;;;20.13;16.93;;;16.30;99.90;;;;;;5489800;26;20307;-57
2024/04/10 05:47:48;;;;;;;16.80;15.00;;;16.20;99.80;;;;;;5485408;26;20299;-58
2024/04/10 05:50:22;;;;;;;15.30;13.57;;;16.20;99.80;;;;;;5491018;26;20254;-58
2024/04/10 05:52:50;;;;;;;13.00;11.70;;;16.20;99.70;;;;;;5490861;26;20348;-58
2024/04/10 05:55:18;;;;;;;12.57;10.77;;;16.10;99.60;;;;;;5489196;26;20718;-58
2024/04/10 05:57:49;;;;;;;15.40;11.53;;;16.10;99.50;;;;;;5483187;26;20738;-58
2024/04/10 06:00:17;;;;;;;10.37;9.37;;;16.00;99.50;;;;;;5489437;26;20273;-58
2024/04/10 06:02:46;;;;;;;9.27;8.37;;;16.10;99.50;;;;;;5487684;26;20239;-58
2024/04/10 06:05:14;;;;;;;9.30;8.50;;;16.00;99.40;;;;;;5479260;26;20315;-57
2024/04/10 06:07:44;;;;;;;8.20;7.40;;;15.90;99.40;;;;;;5489499;26;20563;-58
2024/04/10 06:10:14;;;;;;;6.47;5.67;;;16.00;99.40;;;;;;5487556;26;20608;-58
2024/04/10 06:12:42;;;;;;;5.03;4.30;;;15.90;99.30;;;;;;5488947;26;20278;-58
2024/04/10 06:15:11;;;;;;;3.83;3.53;;;15.90;99.20;;;;;;5487681;26;20346;-58
2024/04/10 06:17:38;;;;;;;3.70;3.40;;;15.80;99.00;;;;;;5491592;26;20276;-58
2024/04/10 06:20:11;;;;;;;4.17;2.83;;;15.70;98.90;;;;;;5487962;26;20692;-58
2024/04/10 06:22:39;;;;;;;7.10;2.80;;;15.70;98.70;;;;;;5457916;26;20241;-57
2024/04/10 06:25:07;;;;;;;4.07;2.50;;;15.60;98.30;;;;;;5490100;26;20237;-58
2024/04/10 06:27:36;;;;;;;6.87;2.70;;;15.60;98.30;;;;;;5485344;26;20295;-57
2024/04/10 06:30:05;;;;;;;4.30;2.37;;;15.50;98.10;;;;;;5488225;26;20253;-58
2024/04/10 06:32:34;;;;;;;6.27;2.23;;;15.40;98.00;;;;;;5454117;26;20338;-58
2024/04/10 06:35:02;;;;;;;2.07;1.87;;;15.30;97.90;;;;;;5485557;26;20614;-58
2024/04/10 06:37:33;;;;;;;2.63;1.60;;;15.30;97.90;;;;;;5486183;26;20267;-57
2024/04/10 06:40:01;;;;;;;3.23;1.90;;;15.20;98.00;;;;;;5471622;26;20244;-58
2024/04/10 06:42:30;;;;;;;6.07;2.97;;;15.20;98.00;;;;;;5488491;26;20250;-58
2024/04/10 06:44:58;;;;;;;3.30;1.87;;;15.10;98.10;;;;;;5487402;26;20238;-57
2024/04/10 06:47:26;;;;;;;2.90;1.40;;;15.10;98.20;;;;;;5483418;26;20697;-59
2024/04/10 06:49:55;;;;;;;1.57;1.47;;;15.10;98.20;;;;;;5488158;26;20543;-58
2024/04/10 06:52:23;;;;;;;1.00;0.90;;;15.10;98.20;;;;;;5489886;26;20249;-58
2024/04/10 06:54:52;;;;;;;0.80;0.80;;;15.00;98.20;;;;;;5470167;26;20288;-57
2024/04/10 06:57:20;;;;;;;3.60;1.13;;;15.00;98.10;;;;;;5489352;26;20253;-57
2024/04/10 06:59:49;;;;;;;1.40;1.30;;;15.00;98.00;;;;;;5451399;26;20302;-58
2024/04/10 07:02:17;;;;;;;1.20;1.10;;;15.00;98.10;;;;;;5488304;26;20250;-58
2024/04/10 07:04:47;;;;;;;1.10;1.00;;;15.00;98.10;;;;;;5483095;26;20246;-57
2024/04/10 07:07:17;;;;;;;1.00;1.00;;;14.90;98.00;;;;;;5486861;26;20283;-57
2024/04/10 07:09:46;;;;;;;1.13;1.00;;;14.90;98.00;;;;;;5489603;26;20766;-57
2024/04/10 07:12:15;;;;;;;2.07;1.10;;;14.90;98.10;;;;;;5447421;26;20251;-57
2024/04/10 07:14:43;;;;;;;1.20;1.10;;;14.80;98.10;;;;;;5488125;26;20710;-58
2024/04/10 07:17:11;;;;;;;1.83;0.90;;;14.80;98.20;;;;;;5486923;26;20241;-58
2024/04/10 07:19:39;;;;;;;1.07;0.97;;;14.80;98.30;;;;;;5453656;26;20287;-57
2024/04/10 07:22:08;;;;;;;2.80;1.20;;;14.70;98.50;;;;;;5488359;26;20302;-58
2024/04/10 07:24:37;;;;;;;3.17;1.17;;;14.70;98.80;;;;;;5483578;26;20607;-58
2024/04/10 07:27:05;;;;;;;1.47;0.97;;;14.70;98.40;;;;;;5481881;26;20249;-58
2024/04/10 07:29:34;;;;;;;3.60;0.80;;;14.70;98.50;;;;;;5489006;26;20238;-59
2024/04/10 07:32:02;;;;;;;0.77;0.77;;;14.70;98.50;;;;;;5449793;26;20292;-59
2024/04/10 07:34:30;;;;;;;2.93;0.87;;;14.70;98.60;;;;;;5482628;26;20602;-59
2024/04/10 07:36:58;;;;;;;0.80;0.80;;;14.70;98.70;;;;;;5488462;26;20287;-59
2024/04/10 07:39:25;;;;;;;2.47;0.70;;;14.80;98.70;;;;;;5513701;26;20794;-59
2024/04/10 07:41:53;;;;;;;0.90;0.90;;;14.80;98.60;;;;;;5490520;26;20341;-59
2024/04/10 07:44:20;;;;;;;1.07;0.97;;;14.70;98.40;;;;;;5488677;26;20283;-60
2024/04/10 07:46:48;;;;;;;1.00;0.93;;;14.60;98.40;;;;;;5486493;26;20281;-59
2024/04/10 07:49:17;;;;;;;1.90;0.80;;;14.50;98.60;;;;;;5471078;26;20693;-59
2024/04/10 07:51:46;;;;;;;1.00;0.90;;;14.50;98.90;;;;;;5488717;26;20245;-60
2024/04/10 07:54:13;;;;;;;0.70;0.70;;;14.50;99.00;;;;;;5487624;26;20249;-59
2024/04/10 07:56:42;;;;;;;1.47;0.80;;;14.50;99.10;;;;;;5483326;26;20613;-58
2024/04/10 07:59:09;;;;;;;1.57;1.10;;;14.50;99.20;;;;;;5486788;26;20242;-58
2024/04/10 08:01:37;;;;;;;0.77;0.70;;;14.60;99.20;;;;;;5488825;26;20276;-59
2024/04/10 08:04:06;;;;;;;2.80;0.70;;;14.50;99.10;;;;;;5424889;26;20257;-59
2024/04/10 08:06:36;;;;;;;3.90;1.10;;;14.50;99.20;;;;;;5488552;26;20288;-60
2024/04/10 08:09:04;;;;;;;1.17;0.77;;;14.50;99.30;;;;;;5480033;26;20348;-59
2024/04/10 08:11:33;;;;;;;2.77;0.87;;;14.50;99.30;;;;;;5487832;26;20295;-60
2024/04/10 08:14:01;;;;;;;3.30;1.17;;;14.40;99.30;;;;;;5486664;26;20253;-58
2024/04/10 08:16:29;;;;;;;1.73;1.13;;;14.40;99.40;;;;;;5479090;26;20237;-59
2024/04/10 08:18:57;;;;;;;1.90;1.30;;;14.40;99.50;;;;;;5488661;26;20292;-59
2024/04/10 08:21:24;;;;;;;3.37;1.20;;;14.40;99.70;;;;;;5490295;26;20282;-59
2024/04/10 08:23:51;;;;;;;1.50;1.03;;;14.40;99.70;;;;;;5484264;26;20279;-59
2024/04/10 08:26:20;;;;;;;6.13;1.30;;;14.40;99.60;;;;;;5456207;26;20329;-60
2024/04/10 08:28:50;;;;;;;1.53;1.00;;;14.40;99.60;;;;;;5457893;26;20257;-59
2024/04/10 08:31:27;;;;;;;2.10;0.80;;;14.40;99.80;;;;;;5483590;26;20250;-58
2024/04/10 08:33:55;;;;;;;0.60;0.60;;;14.40;99.70;;;;;;5484125;26;20306;-59
2024/04/10 08:36:24;;;;;;;0.80;0.80;;;14.40;99.90;;;;;;5483319;26;20588;-59
2024/04/10 08:38:52;;;;;;;3.10;0.70;;;14.40;99.90;;;;;;5455524;26;20276;-60
2024/04/10 08:41:21;;;;;;;2.47;0.70;;;14.50;99.90;;;;;;5475618;26;20246;-60
2024/04/10 08:43:51;;;;;;;4.43;0.87;;;14.50;99.90;;;;;;5480104;26;20241;-60
2024/04/10 08:46:21;;;;;;;0.70;0.63;;;14.50;99.90;;;;;;5485680;26;20591;-60
2024/04/10 08:48:54;;;;;;;1.90;0.77;;;14.50;99.80;;;;;;5493129;26;20245;-59
2024/04/10 08:51:23;;;;;;;5.60;0.70;;;14.50;99.90;;;;;;5502911;26;20289;-59
2024/04/10 08:53:54;;;;;;;0.87;0.80;;;14.60;99.90;;;;;;5454760;26;20620;-59
2024/04/10 08:56:22;;;;;;;0.80;0.60;;;14.50;99.90;;;;;;5488380;26;20246;-59
2024/04/10 08:58:50;;;;;;;0.70;0.70;;;14.50;99.90;;;;;;5491711;26;20238;-60
2024/04/10 09:01:33;;;;;;;2.10;0.70;;;14.60;99.80;;;;;;5489483;26;20249;-60
2024/04/10 09:04:10;;;;;;;1.93;0.83;;;14.50;99.60;;;;;;5477748;26;20285;-59
2024/04/10 09:06:39;;;;;;;1.13;0.90;;;14.50;99.60;;;;;;5490133;26;20374;-60
2024/04/10 09:09:08;;;;;;;0.70;0.70;;;14.40;99.70;;;;;;5490503;26;20252;-60
2024/04/10 09:11:39;;;;;;;1.00;1.00;;;14.40;99.80;;;;;;5487641;26;20244;-60
2024/04/10 09:14:10;;;;;;;0.90;0.90;;;14.40;99.60;;;;;;5488890;26;20587;-60
2024/04/10 09:16:40;;;;;;;0.70;0.70;;;14.40;99.60;;;;;;5486461;26;20253;-60
2024/04/10 09:19:16;;;;;;;1.00;1.00;;;14.30;99.70;;;;;;5484105;26;20618;-59
2024/04/10 09:21:54;;;;;;;1.47;0.90;;;14.30;99.90;;;;;;5486495;26;20273;-59
2024/04/10 09:24:29;;;;;;;0.90;0.90;;;14.40;99.90;;;;;;5491733;26;20565;-59
2024/04/10 09:26:58;;;;;;;1.10;0.87;;;14.40;99.90;;;;;;5491714;26;20288;-59
2024/04/10 09:29:29;;;;;;;1.53;1.30;;;14.40;99.90;;;;;;5489105;26;20240;-59
2024/04/10 09:32:04;;;;;;;1.30;1.20;;;14.40;99.70;;;;;;5474046;26;20610;-59
2024/04/10 09:34:34;;;;;;;1.23;1.10;;;14.40;99.80;;;;;;5484548;26;20270;-59
2024/04/10 09:37:05;;;;;;;0.90;0.90;;;14.30;99.90;;;;;;5519727;26;20246;-59
2024/04/10 09:39:34;;;;;;;3.40;1.10;;;14.40;99.90;;;;;;5489107;26;20288;-60
2024/04/10 09:42:13;;;;;;;2.60;1.13;;;14.40;99.90;;;;;;5485282;26;20341;-58
2024/04/10 09:44:42;;;;;;;1.40;1.17;;;14.40;99.90;;;;;;5487853;26;20345;-59
2024/04/10 09:47:12;;;;;;;4.67;1.00;;;14.40;99.90;;;;;;5471126;26;20271;-59
2024/04/10 09:49:42;;;;;;;1.47;1.20;;;14.40;99.90;;;;;;5487609;26;20293;-59
2024/04/10 09:52:13;;;;;;;1.00;1.00;;;14.40;99.90;;;;;;5488004;26;20241;-59
2024/04/10 09:54:41;;;;;;;1.10;1.10;;;14.40;99.90;;;;;;5482613;26;20798;-59
2024/04/10 09:57:12;;;;;;;2.40;1.00;;;14.40;99.90;;;;;;5490424;26;20305;-59
2024/04/10 09:59:41;;;;;;;2.53;2.33;;;14.40;99.90;;;;;;5490799;26;20237;-59
2024/04/10 10:02:18;;;;;;;1.30;1.20;;;14.50;99.90;;;;;;5489786;26;20596;-59
2024/04/10 10:04:46;;;;;;;1.83;1.73;;;14.50;99.90;;;;;;5491521;26;20334;-59
2024/04/10 10:07:22;;;;;;;2.60;1.47;;;14.50;99.90;;;;;;5491899;26;20700;-60
2024/04/10 10:09:50;;;;;;;1.10;1.10;;;14.50;99.90;;;;;;5487557;26;20253;-58
2024/04/10 10:12:26;;;;;;;1.40;1.13;;;14.50;99.90;;;;;;5484630;26;20649;-58
2024/04/10 10:14:53;;;;;;;1.30;1.20;;;14.50;99.90;;;;;;5473600;26;20280;-60
2024/04/10 10:17:28;;;;;;;1.00;0.93;;;14.50;99.80;;;;;;5489619;26;20253;-57
2024/04/10 10:20:00;;;;;;;0.97;0.97;;;14.60;99.80;;;;;;5490563;26;21148;-58
2024/04/10 10:22:28;;;;;;;1.67;1.57;;;14.60;99.70;;;;;;5488049;26;20255;-58
2024/04/10 10:24:59;;;;;;;1.50;1.40;;;14.60;99.90;;;;;;5493075;26;20234;-57
2024/04/10 10:27:27;;;;;;;1.57;1.47;;;14.60;99.90;;;;;;5456003;26;20275;-59
2024/04/10 10:30:07;;;;;;;1.67;1.57;;;14.60;99.70;;;;;;5450774;26;20287;-58
2024/04/10 10:32:35;;;;;;;1.87;1.77;;;14.60;99.60;;;;;;5477650;26;20236;-58
2024/04/10 10:35:08;;;;;;;1.77;1.60;;;14.60;99.50;;;;;;5487466;26;20284;-59
2024/04/10 10:37:40;;;;;;;3.40;1.70;;;14.60;99.40;;;;;;5468119;26;20242;-59
2024/04/10 10:40:15;;;;;;;5.13;1.93;;;14.50;99.30;;;;;;5489116;26;20697;-59
2024/04/10 10:42:43;;;;;;;2.03;1.87;;;14.50;99.30;;;;;;5482513;26;20310;-58
2024/04/10 10:45:11;;;;;;;2.50;2.17;;;14.50;99.40;;;;;;5486484;26;20244;-59
2024/04/10 10:47:39;;;;;;;2.33;2.13;;;14.50;99.50;;;;;;5491213;26;20237;-59
2024/04/10 10:50:07;;;;;;;2.50;2.27;;;14.50;99.50;;;;;;5487586;26;20563;-58
2024/04/10 10:52:35;;;;;;;4.97;3.10;;;14.50;99.30;;;;;;5491777;26;20236;-58
2024/04/10 10:55:07;;;;;;;3.33;2.43;;;14.40;99.10;;;;;;5486983;26;20309;-59
2024/04/10 10:57:36;;;;;;;2.77;2.37;;;14.40;99.30;;;;;;5487365;26;20281;-58
2024/04/10 11:00:17;;;;;;;3.20;2.20;;;14.30;99.40;;;;;;5489452;26;20253;-59
2024/04/10 11:02:45;;;;;;;3.83;2.17;;;14.30;99.50;;;;;;5487303;26;20278;-59
2024/04/10 11:05:15;;;;;;;2.33;2.10;;;14.30;99.70;;;;;;5486693;26;20304;-59
2024/04/10 11:07:43;;;;;;;1.77;1.67;;;14.30;99.80;;;;;;5488469;26;20236;-59
2024/04/10 11:10:12;;;;;;;2.20;2.03;;;14.30;99.70;;;;;;5489791;26;20283;-59
2024/04/10 11:12:40;;;;;;;2.43;2.23;;;14.30;99.70;;;;;;5483438;26;20346;-59
2024/04/10 11:15:11;;;;;;;2.23;2.03;;;14.40;99.70;;;;;;5490851;26;20611;-59
2024/04/10 11:17:39;;;;;;;2.90;2.20;;;14.40;99.70;;;;;;5458522;26;20671;-59
2024/04/10 11:20:11;;;;;;;3.57;1.90;;;14.40;99.80;;;;;;5482439;26;20789;-58
2024/04/10 11:22:39;;;;;;;2.87;2.10;;;14.40;99.90;;;;;;5514182;25;20324;-59
2024/04/10 11:25:07;;;;;;;2.17;1.97;;;14.40;99.90;;;;;;5459336;26;20301;-59
2024/04/10 11:27:35;;;;;;;4.87;2.37;;;14.50;99.90;;;;;;5449915;26;20243;-58
2024/04/10 11:30:04;;;;;;;2.20;2.00;;;14.50;99.80;;;;;;5510451;26;20255;-59
2024/04/10 11:32:32;;;;;;;3.67;2.00;;;14.50;99.70;;;;;;5484873;26;20645;-59
2024/04/10 11:35:00;;;;;;;2.70;2.50;;;14.60;99.70;;;;;;5489330;26;20252;-59
2024/04/10 11:37:27;;;;;;;2.63;2.43;;;14.60;99.70;;;;;;5490290;26;20554;-59
2024/04/10 11:39:57;;;;;;;3.00;2.80;;;14.60;99.80;;;;;;5490969;26;20714;-59
2024/04/10 11:42:24;;;;;;;2.80;2.57;;;14.70;99.80;;;;;;5483881;26;20340;-59
2024/04/10 11:44:52;;;;;;;3.23;2.60;;;14.70;99.80;;;;;;5488850;26;20285;-59
2024/04/10 11:47:19;;;;;;;2.90;2.70;;;14.70;99.80;;;;;;5488453;26;20241;-58
2024/04/10 11:49:47;;;;;;;2.40;2.20;;;14.80;99.80;;;;;;5479375;26;20250;-58
2024/04/10 11:52:14;;;;;;;3.67;3.10;;;14.80;99.80;;;;;;5488338;26;20248;-58
2024/04/10 11:54:42;;;;;;;3.03;2.53;;;14.80;99.80;;;;;;5488460;26;20288;-58
2024/04/10 11:57:09;;;;;;;3.93;2.80;;;14.80;99.60;;;;;;5487158;26;20295;-59
2024/04/10 11:59:37;;;;;;;4.10;3.10;;;14.80;99.60;;;;;;5487276;26;20261;-59
2024/04/10 12:02:05;;;;;;;3.63;2.80;;;14.90;99.80;;;;;;5488288;26;20686;-58
2024/04/10 12:04:32;;;;;;;3.20;2.50;;;14.90;99.80;;;;;;5480888;26;20252;-59
2024/04/10 12:07:01;;;;;;;2.50;2.30;;;15.00;99.80;;;;;;5482392;26;20253;-58
2024/04/10 12:09:29;;;;;;;2.73;2.53;;;15.00;99.80;;;;;;5476050;26;20809;-59
2024/04/10 12:11:56;;;;;;;5.20;2.70;;;15.00;99.80;;;;;;5481710;26;20355;-58
2024/04/10 12:14:25;;;;;;;3.47;2.80;;;15.00;99.80;;;;;;5485662;26;20293;-58
2024/04/10 12:16:52;;;;;;;3.80;2.43;;;15.00;99.70;;;;;;5487196;26;20238;-59
2024/04/10 12:19:20;;;;;;;2.93;2.50;;;15.10;99.80;;;;;;5485639;26;20547;-59
2024/04/10 12:21:48;;;;;;;3.73;2.63;;;15.10;99.70;;;;;;5452885;26;20245;-59
2024/04/10 12:24:15;;;;;;;2.97;2.63;;;15.10;99.50;;;;;;5491198;26;20245;-59
2024/04/10 12:26:43;;;;;;;4.37;2.50;;;15.00;99.40;;;;;;5482067;26;20710;-59
2024/04/10 12:29:11;;;;;;;3.07;2.70;;;15.00;99.30;;;;;;5455762;26;20316;-59
2024/04/10 12:31:38;;;;;;;4.20;2.77;;;15.00;99.30;;;;;;5511993;26;20241;-59
2024/04/10 12:34:07;;;;;;;4.20;2.77;;;15.00;99.30;;;;;;5482168;26;20279;-58
2024/04/10 12:39:22;;;;;;;4.53;3.50;;;14.90;99.30;;;;;;5472461;26;20822;-58
2024/04/10 12:41:49;;;;;;;4.67;3.70;;;14.90;99.40;;;;;;5489201;26;20623;-58
2024/04/10 12:44:19;;;;;;;8.90;3.40;;;14.90;99.50;;;;;;5488300;26;20297;-58
2024/04/10 12:46:51;;;;;;;5.00;3.67;;;14.90;99.60;;;;;;5473073;26;20241;-58
2024/04/10 12:49:18;;;;;;;4.37;3.97;;;14.90;99.70;;;;;;5487787;26;20254;-58
2024/04/10 12:51:46;;;;;;;6.20;5.07;;;14.90;99.60;;;;;;5480682;26;20323;-59